createdAt,value
2019-04-07T00:01:48.190Z,9.78
2019-04-07T00:04:53.539Z,9.45
2019-04-07T00:07:59.180Z,9.33
2019-04-07T00:11:04.938Z,9.12
2019-04-07T00:14:10.508Z,9.15
2019-04-07T00:17:16.408Z,8.93
2019-04-07T00:20:23.652Z,8.82
2019-04-07T00:23:30.735Z,8.81
2019-04-07T00:26:36.130Z,8.71
2019-04-07T00:29:41.697Z,8.67
2019-04-07T00:32:48.106Z,8.88
2019-04-07T00:35:54.365Z,8.92
2019-04-07T00:38:59.708Z,8.73
2019-04-07T00:42:05.286Z,8.58
2019-04-07T00:45:10.831Z,8.59
2019-04-07T00:48:16.826Z,8.55
2019-04-07T00:51:22.285Z,8.51
2019-04-07T00:54:28.106Z,8.44
2019-04-07T00:57:34.541Z,8.43
2019-04-07T01:00:42.453Z,8.43
2019-04-07T01:03:48.151Z,8.36
2019-04-07T01:06:53.720Z,8.32
2019-04-07T01:09:59.546Z,8.62
2019-04-07T01:13:05.399Z,8.42
2019-04-07T01:16:10.830Z,8.29
2019-04-07T01:19:16.221Z,8.58
2019-04-07T01:22:21.885Z,8.71
2019-04-07T01:25:27.382Z,8.63
2019-04-07T01:28:32.848Z,8.56
2019-04-07T01:31:38.176Z,8.50
2019-04-07T01:34:43.567Z,8.35
2019-04-07T01:37:49.496Z,8.30
2019-04-07T01:41:06.246Z,8.43
2019-04-07T01:44:16.807Z,8.28
2019-04-07T01:47:30.016Z,8.20
2019-04-07T01:51:06.621Z,8.39
2019-04-07T01:54:39.825Z,8.16
2019-04-07T01:58:20.087Z,7.99
2019-04-07T02:01:36.324Z,7.87
2019-04-07T02:05:09.945Z,7.79
2019-04-07T02:08:43.355Z,7.69
2019-04-07T02:12:04.874Z,7.78
2019-04-07T02:15:21.740Z,7.86
2019-04-07T02:18:35.374Z,8.06
2019-04-07T02:21:54.746Z,8.08
2019-04-07T02:25:08.026Z,8.08
2019-04-07T02:28:36.237Z,8.18
2019-04-07T02:32:16.182Z,7.87
2019-04-07T02:35:40.444Z,7.69
2019-04-07T02:39:04.510Z,7.70
2019-04-07T02:42:34.556Z,7.67
2019-04-07T02:46:05.818Z,7.46
2019-04-07T02:49:28.814Z,7.32
2019-04-07T02:52:45.194Z,7.26
2019-04-07T02:56:03.773Z,7.38
2019-04-07T02:59:14.661Z,7.28
2019-04-07T03:02:27.930Z,7.37
2019-04-07T03:05:44.146Z,7.24
2019-04-07T03:09:15.375Z,7.17
2019-04-07T03:12:52.890Z,7.24
2019-04-07T03:16:21.077Z,7.35
2019-04-07T03:19:48.683Z,7.28
2019-04-07T03:23:24.971Z,7.22
2019-04-07T03:26:44.953Z,7.29
2019-04-07T03:29:58.757Z,7.33
2019-04-07T03:33:25.980Z,7.39
2019-04-07T03:37:23.013Z,7.23
2019-04-07T03:40:35.559Z,7.12
2019-04-07T03:43:49.508Z,7.17
2019-04-07T03:47:08.832Z,7.16
2019-04-07T03:50:36.684Z,7.24
2019-04-07T03:53:53.956Z,7.32
2019-04-07T03:57:15.128Z,7.19
2019-04-07T04:01:30.056Z,7.17
2019-04-07T04:04:45.708Z,7.15
2019-04-07T04:08:00.842Z,7.20
2019-04-07T04:11:20.477Z,7.19
2019-04-07T04:14:34.795Z,6.97
2019-04-07T04:17:40.108Z,6.91
2019-04-07T04:20:45.373Z,6.98
2019-04-07T04:23:50.633Z,7.15
2019-04-07T04:26:56.979Z,7.28
2019-04-07T04:30:03.064Z,7.53
2019-04-07T04:33:08.991Z,7.54
2019-04-07T04:36:15.519Z,7.37
2019-04-07T04:39:21.200Z,7.13
2019-04-07T04:42:26.866Z,6.93
2019-04-07T04:45:32.196Z,6.84
2019-04-07T04:48:42.966Z,6.80
2019-04-07T04:51:48.550Z,6.95
2019-04-07T04:54:54.884Z,6.90
2019-04-07T04:58:00.343Z,7.14
2019-04-07T05:01:06.364Z,7.14
2019-04-07T05:04:12.580Z,7.37
2019-04-07T05:07:19.151Z,7.65
2019-04-07T05:10:24.792Z,7.98
2019-04-07T05:13:33.267Z,8.28
2019-04-07T05:16:38.812Z,8.51
2019-04-07T05:19:44.404Z,8.59
2019-04-07T05:22:49.999Z,8.72
2019-04-07T05:25:55.703Z,9.19
2019-04-07T05:29:07.193Z,9.80
2019-04-07T05:32:12.521Z,10.31
2019-04-07T05:35:18.840Z,10.75
2019-04-07T05:38:24.247Z,11.10
2019-04-07T05:41:31.180Z,11.23
2019-04-07T05:44:37.161Z,11.32
2019-04-07T05:47:47.808Z,11.96
2019-04-07T05:50:50.364Z,12.18
2019-04-07T05:53:55.880Z,12.78
2019-04-07T05:57:01.583Z,12.94
2019-04-07T06:00:13.623Z,13.25
2019-04-07T06:03:16.591Z,13.90
2019-04-07T06:06:22.910Z,14.13
2019-04-07T06:09:28.189Z,14.56
2019-04-07T06:12:33.896Z,14.68
2019-04-07T06:15:39.264Z,15.14
2019-04-07T06:18:44.565Z,14.18
2019-04-07T06:21:51.674Z,13.75
2019-04-07T06:25:00.756Z,13.60
2019-04-07T06:28:05.451Z,13.54
2019-04-07T06:31:12.861Z,13.93
2019-04-07T06:34:18.505Z,13.51
2019-04-07T06:37:28.826Z,13.51
2019-04-07T06:40:32.204Z,13.33
2019-04-07T06:43:39.796Z,13.21
2019-04-07T06:47:03.891Z,13.45
2019-04-07T06:50:54.899Z,13.14
2019-04-07T06:54:05.959Z,12.99
2019-04-07T06:57:30.795Z,12.60
2019-04-07T07:00:46.942Z,12.81
2019-04-07T07:04:23.484Z,12.90
2019-04-07T07:07:38.038Z,13.12
2019-04-07T07:11:07.692Z,13.50
2019-04-07T07:14:42.311Z,13.65
2019-04-07T07:18:12.315Z,14.33
2019-04-07T07:21:24.632Z,13.96
2019-04-07T07:24:30.160Z,13.89
2019-04-07T07:27:38.849Z,14.50
2019-04-07T07:30:42.723Z,13.91
2019-04-07T07:33:49.556Z,13.99
2019-04-07T07:36:57.673Z,13.49
2019-04-07T07:40:02.256Z,14.06
2019-04-07T07:43:08.648Z,13.84
2019-04-07T07:46:18.101Z,14.06
2019-04-07T07:49:21.501Z,14.51
2019-04-07T07:52:28.684Z,14.09
2019-04-07T07:55:37.569Z,14.26
2019-04-07T07:58:41.373Z,14.20
2019-04-07T08:01:47.551Z,14.32
2019-04-07T08:04:56.738Z,14.40
2019-04-07T08:08:01.766Z,14.14
2019-04-07T08:11:08.818Z,14.58
2019-04-07T08:14:17.183Z,14.44
2019-04-07T08:17:21.069Z,14.55
2019-04-07T08:20:27.474Z,14.93
2019-04-07T08:23:35.165Z,14.93
2019-04-07T08:26:40.591Z,14.45
2019-04-07T08:29:46.217Z,14.49
2019-04-07T08:32:51.843Z,14.50
2019-04-07T08:35:57.756Z,14.78
2019-04-07T08:39:05.031Z,14.95
2019-04-07T08:42:14.092Z,14.93
2019-04-07T08:45:17.935Z,15.06
2019-04-07T08:48:23.318Z,15.04
2019-04-07T08:51:31.660Z,14.92
2019-04-07T08:54:36.872Z,14.92
2019-04-07T08:57:43.477Z,14.95
2019-04-07T09:00:52.647Z,15.23
2019-04-07T09:03:57.567Z,15.36
2019-04-07T09:07:04.100Z,15.54
2019-04-07T09:10:11.545Z,15.57
2019-04-07T09:13:17.461Z,15.56
2019-04-07T09:16:41.968Z,15.65
2019-04-07T09:20:10.754Z,15.84
2019-04-07T09:23:28.314Z,16.04
2019-04-07T09:26:47.334Z,16.18
2019-04-07T09:30:15.296Z,16.27
2019-04-07T09:33:38.862Z,16.42
2019-04-07T09:37:03.303Z,16.72
2019-04-07T09:40:31.844Z,16.94
2019-04-07T09:43:50.755Z,17.05
2019-04-07T09:47:21.489Z,16.90
2019-04-07T09:50:36.466Z,16.93
2019-04-07T09:54:11.115Z,16.85
2019-04-07T09:57:45.029Z,17.00
2019-04-07T10:01:12.139Z,16.89
2019-04-07T10:04:38.532Z,16.90
2019-04-07T10:08:03.356Z,16.81
2019-04-07T10:11:27.520Z,16.93
2019-04-07T10:14:53.108Z,16.89
2019-04-07T10:18:19.247Z,16.99
2019-04-07T10:21:44.040Z,16.96
2019-04-07T10:24:59.849Z,17.04
2019-04-07T10:28:36.698Z,17.07
2019-04-07T10:32:06.285Z,17.06
2019-04-07T10:35:29.563Z,17.06
2019-04-07T10:38:54.135Z,17.13
2019-04-07T10:42:21.910Z,17.41
2019-04-07T10:45:51.744Z,17.44
2019-04-07T10:49:16.017Z,17.44
2019-04-07T10:52:56.252Z,17.43
2019-04-07T10:56:26.633Z,17.54
2019-04-07T10:59:54.099Z,17.43
2019-04-07T11:03:30.445Z,17.59
2019-04-07T11:06:56.482Z,17.53
2019-04-07T11:10:37.676Z,17.43
2019-04-07T11:13:57.434Z,17.58
2019-04-07T11:17:25.396Z,17.46
2019-04-07T11:20:39.485Z,17.53
2019-04-07T11:24:16.540Z,17.70
2019-04-07T11:27:46.858Z,17.65
2019-04-07T11:31:03.908Z,17.82
2019-04-07T11:34:28.287Z,17.77
2019-04-07T11:37:51.770Z,17.79
2019-04-07T11:41:32.825Z,17.98
2019-04-07T11:44:45.633Z,18.11
2019-04-07T11:47:58.075Z,17.99
2019-04-07T11:51:16.149Z,18.07
2019-04-07T11:54:37.034Z,18.05
2019-04-07T11:58:15.531Z,18.05
2019-04-07T12:01:46.061Z,18.14
2019-04-07T12:05:12.292Z,17.96
2019-04-07T12:08:40.422Z,18.21
2019-04-07T12:12:12.578Z,18.12
2019-04-07T12:15:36.960Z,17.98
2019-04-07T12:19:00.153Z,18.03
2019-04-07T12:22:33.953Z,18.17
2019-04-07T12:25:54.736Z,18.14
2019-04-07T12:29:27.157Z,17.91
2019-04-07T12:32:49.900Z,18.12
2019-04-07T12:36:13.025Z,18.24
2019-04-07T12:39:35.261Z,18.14
2019-04-07T12:43:07.353Z,18.11
2019-04-07T12:46:38.746Z,17.94
2019-04-07T12:50:02.080Z,18.09
2019-04-07T12:53:35.338Z,18.21
2019-04-07T12:57:17.071Z,18.06
2019-04-07T13:00:53.089Z,17.96
2019-04-07T13:03:57.774Z,18.18
2019-04-07T13:07:25.239Z,18.18
2019-04-07T13:10:49.524Z,18.18
2019-04-07T13:14:12.970Z,18.00
2019-04-07T13:17:43.439Z,18.27
2019-04-07T13:21:05.380Z,18.30
2019-04-07T13:24:35.162Z,18.27
2019-04-07T13:27:44.990Z,18.37
2019-04-07T13:31:21.740Z,18.19
2019-04-07T13:34:38.619Z,18.34
2019-04-07T13:38:18.263Z,18.43
2019-04-07T13:41:40.846Z,18.35
2019-04-07T13:44:52.617Z,18.21
2019-04-07T13:48:11.579Z,18.36
2019-04-07T13:51:36.594Z,18.36
2019-04-07T13:55:04.533Z,18.33
2019-04-07T13:58:35.341Z,18.34
2019-04-07T14:02:16.579Z,18.50
2019-04-07T14:05:41.820Z,18.58
2019-04-07T14:09:15.841Z,18.55
2019-04-07T14:12:39.039Z,18.46
2019-04-07T14:15:53.194Z,18.59
2019-04-07T14:19:29.473Z,18.38
2019-04-07T14:22:59.496Z,18.58
2019-04-07T14:26:26.912Z,18.61
2019-04-07T14:29:54.840Z,18.44
2019-04-07T14:33:24.708Z,18.41
2019-04-07T14:36:52.419Z,18.63
2019-04-07T14:40:17.354Z,18.54
2019-04-07T14:43:44.668Z,18.57
2019-04-07T14:47:08.720Z,18.59
2019-04-07T14:50:38.503Z,18.48
2019-04-07T14:54:02.975Z,18.50
2019-04-07T14:57:30.895Z,18.55
2019-04-07T15:01:02.700Z,18.40
2019-04-07T15:04:06.350Z,18.36
2019-04-07T15:07:24.795Z,18.14
2019-04-07T15:10:34.073Z,18.29
2019-04-07T15:13:40.301Z,17.98
2019-04-07T15:16:45.893Z,18.11
2019-04-07T15:19:51.339Z,18.11
2019-04-07T15:22:59.260Z,18.24
2019-04-07T15:26:03.969Z,18.24
2019-04-07T15:29:10.883Z,18.26
2019-04-07T15:32:17.045Z,18.33
2019-04-07T15:35:23.277Z,18.17
2019-04-07T15:38:28.693Z,18.28
2019-04-07T15:41:34.124Z,18.24
2019-04-07T15:44:41.296Z,18.12
2019-04-07T15:47:51.335Z,18.21
2019-04-07T15:50:54.933Z,18.22
2019-04-07T15:54:00.741Z,18.34
2019-04-07T15:57:07.291Z,18.22
2019-04-07T16:00:13.927Z,18.25
2019-04-07T16:03:19.463Z,18.26
2019-04-07T16:06:25.986Z,18.28
2019-04-07T16:09:40.980Z,18.11
2019-04-07T16:12:47.439Z,17.92
2019-04-07T16:15:54.798Z,18.06
2019-04-07T16:18:59.941Z,17.85
2019-04-07T16:22:11.212Z,17.77
2019-04-07T16:25:17.739Z,17.85
2019-04-07T16:28:23.197Z,17.79
2019-04-07T16:31:31.157Z,17.60
2019-04-07T16:34:38.790Z,17.64
2019-04-07T16:37:43.801Z,17.49
2019-04-07T16:40:50.177Z,17.51
2019-04-07T16:43:56.567Z,17.54
2019-04-07T16:47:03.964Z,17.36
2019-04-07T16:50:09.783Z,17.03
2019-04-07T16:53:15.085Z,16.81
2019-04-07T16:56:22.146Z,16.76
2019-04-07T16:59:27.543Z,16.64
2019-04-07T17:02:33.848Z,16.52
2019-04-07T17:05:39.932Z,16.48
2019-04-07T17:08:46.565Z,16.52
2019-04-07T17:11:51.923Z,16.50
2019-04-07T17:14:57.811Z,16.33
2019-04-07T17:18:07.242Z,16.17
2019-04-07T17:21:18.209Z,16.15
2019-04-07T17:24:27.156Z,16.04
2019-04-07T17:27:31.480Z,15.92
2019-04-07T17:30:38.394Z,15.83
2019-04-07T17:33:43.922Z,15.44
2019-04-07T17:36:53.151Z,15.29
2019-04-07T17:40:11.207Z,15.06
2019-04-07T17:43:37.575Z,14.85
2019-04-07T17:47:00.039Z,14.64
2019-04-07T17:50:31.670Z,14.44
2019-04-07T17:54:10.180Z,14.34
2019-04-07T17:57:39.745Z,14.24
2019-04-07T18:00:59.648Z,14.10
2019-04-07T18:04:18.898Z,13.99
2019-04-07T18:07:44.690Z,13.90
2019-04-07T18:11:04.271Z,13.81
2019-04-07T18:14:38.555Z,13.81
2019-04-07T18:18:03.229Z,13.51
2019-04-07T18:21:44.932Z,12.96
2019-04-07T18:25:14.152Z,12.57
2019-04-07T18:28:30.415Z,12.34
2019-04-07T18:31:45.528Z,12.13
2019-04-07T18:35:08.709Z,12.08
2019-04-07T18:38:31.499Z,11.91
2019-04-07T18:42:10.258Z,11.91
2019-04-07T18:45:44.072Z,11.88
2019-04-07T18:49:03.281Z,12.00
2019-04-07T18:52:45.718Z,11.96
2019-04-07T18:55:59.809Z,12.12
2019-04-07T18:59:17.144Z,12.58
2019-04-07T19:02:46.439Z,12.45
2019-04-07T19:06:12.771Z,12.18
2019-04-07T19:09:37.083Z,12.10
2019-04-07T19:13:17.442Z,11.97
2019-04-07T19:16:46.753Z,11.87
2019-04-07T19:20:08.859Z,12.19
2019-04-07T19:23:28.526Z,12.18
2019-04-07T19:26:54.390Z,11.92
2019-04-07T19:30:26.570Z,11.94
2019-04-07T19:33:50.479Z,11.77
2019-04-07T19:37:17.132Z,11.87
2019-04-07T19:40:40.257Z,11.79
2019-04-07T19:44:02.429Z,12.08
2019-04-07T19:47:42.068Z,12.06
2019-04-07T19:51:06.822Z,12.36
2019-04-07T19:54:30.000Z,12.42
2019-04-07T19:57:47.061Z,12.25
2019-04-07T20:01:01.793Z,12.29
2019-04-07T20:04:23.014Z,12.21
2019-04-07T20:07:50.401Z,11.96
2019-04-07T20:11:27.731Z,12.08
2019-04-07T20:15:02.990Z,11.98
2019-04-07T20:18:24.565Z,12.07
2019-04-07T20:21:53.376Z,11.90
2019-04-07T20:25:28.714Z,11.94
2019-04-07T20:28:57.263Z,11.83
2019-04-07T20:32:42.747Z,11.69
2019-04-07T20:36:27.745Z,11.67
2019-04-07T20:39:59.250Z,11.62
2019-04-07T20:43:27.349Z,11.62
2019-04-07T20:46:59.190Z,11.54
2019-04-07T20:50:26.843Z,11.64
2019-04-07T20:53:51.502Z,11.59
2019-04-07T20:57:03.693Z,11.40
2019-04-07T21:00:26.869Z,11.39
2019-04-07T21:04:04.278Z,11.52
2019-04-07T21:07:35.418Z,11.45
2019-04-07T21:11:04.742Z,11.38
2019-04-07T21:14:18.802Z,11.26
2019-04-07T21:17:55.564Z,11.20
2019-04-07T21:21:19.968Z,11.34
2019-04-07T21:24:52.945Z,11.32
2019-04-07T21:28:07.722Z,11.33
2019-04-07T21:31:32.256Z,11.24
2019-04-07T21:34:58.284Z,11.24
2019-04-07T21:38:20.822Z,11.23
2019-04-07T21:41:36.310Z,11.33
2019-04-07T21:45:09.212Z,11.17
2019-04-07T21:48:43.263Z,11.42
2019-04-07T21:52:10.954Z,11.20
2019-04-07T21:55:43.087Z,11.22
2019-04-07T21:59:01.196Z,11.17
2019-04-07T22:02:34.677Z,11.28
2019-04-07T22:05:58.171Z,11.17
2019-04-07T22:09:14.726Z,10.86
2019-04-07T22:12:18.852Z,11.07
2019-04-07T22:15:24.834Z,11.01
2019-04-07T22:18:32.463Z,11.04
2019-04-07T22:21:38.255Z,10.89
2019-04-07T22:24:44.285Z,10.54
2019-04-07T22:27:50.439Z,10.37
2019-04-07T22:30:57.257Z,10.19
2019-04-07T22:34:04.617Z,10.48
2019-04-07T22:37:10.149Z,10.81
2019-04-07T22:40:19.419Z,10.64
2019-04-07T22:43:24.980Z,10.67
2019-04-07T22:46:31.090Z,10.75
2019-04-07T22:49:36.336Z,10.64
2019-04-07T22:52:41.848Z,10.18
2019-04-07T22:55:47.409Z,9.92
2019-04-07T22:58:52.768Z,10.65
2019-04-07T23:01:58.158Z,10.55
2019-04-07T23:05:03.390Z,11.01
2019-04-07T23:08:08.723Z,10.37
2019-04-07T23:11:14.158Z,9.93
2019-04-07T23:14:20.454Z,9.84
2019-04-07T23:17:25.934Z,9.60
2019-04-07T23:20:31.260Z,9.39
2019-04-07T23:23:36.588Z,9.31
2019-04-07T23:26:42.583Z,9.14
2019-04-07T23:29:47.947Z,8.83
2019-04-07T23:32:53.484Z,8.64
2019-04-07T23:35:59.624Z,8.67
2019-04-07T23:39:07.960Z,8.66
2019-04-07T23:42:13.457Z,8.68
2019-04-07T23:45:19.575Z,8.64
2019-04-07T23:48:25.063Z,9.06
2019-04-07T23:51:30.876Z,8.71
2019-04-07T23:54:37.178Z,8.79
2019-04-07T23:57:42.437Z,8.75
